Map

Track Data

SID SEASON NUMBER BASIN SUBBASIN NAME ISO_TIME NATURE LAT LON WMO_WIND WMO_PRES WMO_AGENCY TRACK_TYPE DIST2LAND LANDFALL IFLAG USA_AGENCY USA_ATCF_ID USA_LAT USA_LON USA_RECORD USA_STATUS USA_WIND USA_PRES USA_SSHS USA_R34_NE USA_R34_SE USA_R34_SW USA_R34_NW USA_R50_NE USA_R50_SE USA_R50_SW USA_R50_NW USA_R64_NE USA_R64_SE USA_R64_SW USA_R64_NW USA_POCI USA_ROCI USA_RMW USA_EYE TOKYO_LAT TOKYO_LON TOKYO_GRADE TOKYO_WIND TOKYO_PRES TOKYO_R50_DIR TOKYO_R50_LONG TOKYO_R50_SHORT TOKYO_R30_DIR TOKYO_R30_LONG TOKYO_R30_SHORT TOKYO_LAND CMA_LAT CMA_LON CMA_CAT CMA_WIND CMA_PRES HKO_LAT HKO_LON HKO_CAT HKO_WIND HKO_PRES NEWDELHI_LAT NEWDELHI_LON NEWDELHI_GRADE NEWDELHI_WIND NEWDELHI_PRES NEWDELHI_CI NEWDELHI_DP NEWDELHI_POCI REUNION_LAT REUNION_LON REUNION_TYPE REUNION_WIND REUNION_PRES REUNION_TNUM REUNION_CI REUNION_RMW REUNION_R34_NE REUNION_R34_SE REUNION_R34_SW REUNION_R34_NW REUNION_R50_NE REUNION_R50_SE REUNION_R50_SW REUNION_R50_NW REUNION_R64_NE REUNION_R64_SE REUNION_R64_SW REUNION_R64_NW BOM_LAT BOM_LON BOM_TYPE BOM_WIND BOM_PRES BOM_TNUM BOM_CI BOM_RMW BOM_R34_NE BOM_R34_SE BOM_R34_SW BOM_R34_NW BOM_R50_NE BOM_R50_SE BOM_R50_SW BOM_R50_NW BOM_R64_NE BOM_R64_SE BOM_R64_SW BOM_R64_NW BOM_ROCI BOM_POCI BOM_EYE BOM_POS_METHOD BOM_PRES_METHOD NADI_LAT NADI_LON NADI_CAT NADI_WIND NADI_PRES WELLINGTON_LAT WELLINGTON_LON WELLINGTON_WIND WELLINGTON_PRES DS824_LAT DS824_LON DS824_STAGE DS824_WIND DS824_PRES TD9636_LAT TD9636_LON TD9636_STAGE TD9636_WIND TD9636_PRES TD9635_LAT TD9635_LON TD9635_WIND TD9635_PRES TD9635_ROCI NEUMANN_LAT NEUMANN_LON NEUMANN_CLASS NEUMANN_WIND NEUMANN_PRES MLC_LAT MLC_LON MLC_CLASS MLC_WIND MLC_PRES USA_GUST BOM_GUST BOM_GUST_PER REUNION_GUST REUNION_GUST_PER USA_SEAHGT USA_SEARAD_NE USA_SEARAD_SE USA_SEARAD_SW USA_SEARAD_NW STORM_SPEED STORM_DIR
1937273N10131 1937 51 WP MM NOT_NAMED 1937-09-29 21:00:00 NR 10.3000 130.900 main 530 482 __________O___ -1 10.3000 130.900 7 12 297
1937273N10131 1937 51 WP MM NOT_NAMED 1937-09-30 00:00:00 NR 10.5771 130.345 main 476 433 __________P___ -1 10.5771 130.345 7 12 298
1937273N10131 1937 51 WP MM NOT_NAMED 1937-09-30 03:00:00 NR 10.8829 129.781 main 437 371 __________P___ -1 10.8829 129.781 7 13 301
1937273N10131 1937 51 WP MM NOT_NAMED 1937-09-30 06:00:00 NR 11.2473 129.202 main 371 315 __________P___ -1 11.2473 129.202 7 14 305
1937273N10131 1937 51 WP MM NOT_NAMED 1937-09-30 09:00:00 NR 11.7000 128.600 main 315 271 __________O___ -1 11.7000 128.600 7 16 310
1937273N10131 1937 51 WP MM NOT_NAMED 1937-09-30 12:00:00 NR 12.2552 127.974 main 272 217 __________P___ -1 12.2552 127.974 7 17 314
1937273N10131 1937 51 WP MM NOT_NAMED 1937-09-30 15:00:00 NR 12.8655 127.355 main 220 194 __________P___ -1 12.8655 127.355 7 17 316
1937273N10131 1937 51 WP MM NOT_NAMED 1937-09-30 18:00:00 NR 13.4679 126.783 main 202 194 __________P___ -1 13.4679 126.783 7 15 318
1937273N10131 1937 51 WP MM NOT_NAMED 1937-09-30 21:00:00 NR 14.0000 126.300 main 205 178 __________O___ -1 14.0000 126.300 7 12 319
1937273N10131 1937 51 WP MM NOT_NAMED 1937-10-01 00:00:00 NR 14.3862 125.967 main 181 165 __________P___ -1 14.3862 125.967 7 9 321
1937273N10131 1937 51 WP MM NOT_NAMED 1937-10-01 03:00:00 NR 14.6962 125.723 main 166 163 __________P___ -1 14.6962 125.723 7 7 323
1937273N10131 1937 51 WP MM NOT_NAMED 1937-10-01 06:00:00 NR 14.9582 125.518 main 170 170 __________P___ -1 14.9582 125.518 7 7 321
1937273N10131 1937 51 WP MM NOT_NAMED 1937-10-01 09:00:00 NR 15.2000 125.300 main 172 169 __________O___ -1 15.2000 125.300 7 7 314
1937273N10131 1937 51 WP MM NOT_NAMED 1937-10-01 12:00:00 NR 15.4400 125.000 main 173 173 __________P___ -1 15.4400 125.000 7 8 308
1937273N10131 1937 51 WP MM NOT_NAMED 1937-10-01 15:00:00 NR 15.6699 124.679 main 195 193 __________P___ -1 15.6699 124.679 7 8 307
1937273N10131 1937 51 WP MM NOT_NAMED 1937-10-01 18:00:00 NR 15.9149 124.344 main 212 178 __________P___ -1 15.9149 124.344 7 8 309
1937273N10131 1937 51 WP MM NOT_NAMED 1937-10-01 21:00:00 NR 16.2000 124.000 main 178 132 __________O___ -1 16.2000 124.000 7 9 318
1937273N10131 1937 51 WP MM NOT_NAMED 1937-10-02 00:00:00 NR 16.5803 123.714 main 132 95 __________P___ -1 16.5803 123.714 7 10 325
1937273N10131 1937 51 WP MM NOT_NAMED 1937-10-02 03:00:00 NR 16.9984 123.412 main 95 72 __________P___ -1 16.9984 123.412 7 11 323
1937273N10131 1937 51 WP MM NOT_NAMED 1937-10-02 06:00:00 NR 17.4174 123.054 main 75 52 __________P___ -1 17.4174 123.054 7 11 316
1937273N10131 1937 51 WP MM NOT_NAMED 1937-10-02 09:00:00 NR 17.8000 122.600 main 52 0 __________O___ -1 17.8000 122.600 4 12 303
1937273N10131 1937 51 WP MM NOT_NAMED 1937-10-02 12:00:00 NR 18.0864 121.968 main 0 0 __________P___ -1 18.0864 121.968 4 14 292
1937273N10131 1937 51 WP MM NOT_NAMED 1937-10-02 15:00:00 NR 18.3321 121.245 main 0 0 __________P___ -1 18.3321 121.245 4 15 289
1937273N10131 1937 51 WP MM NOT_NAMED 1937-10-02 18:00:00 NR 18.5614 120.499 main 24 24 __________P___ -1 18.5614 120.499 4 14 289
1937273N10131 1937 51 WP MM NOT_NAMED 1937-10-02 21:00:00 NR 18.8000 119.800 main 95 95 __________O___ -1 18.8000 119.800 4 13 295
1937273N10131 1937 51 WP MM NOT_NAMED 1937-10-03 00:00:00 NR 19.1171 119.226 main 166 166 __________P___ -1 19.1171 119.226 4 12 302
1937273N10131 1937 51 WP MM NOT_NAMED 1937-10-03 03:00:00 NR 19.4437 118.710 main 229 229 __________P___ -1 19.4437 118.710 4 11 304
1937273N10131 1937 51 WP MM NOT_NAMED 1937-10-03 06:00:00 NR 19.7486 118.239 main 291 291 __________P___ -1 19.7486 118.239 4 10 303
1937273N10131 1937 51 WP MM NOT_NAMED 1937-10-03 09:00:00 NR 20.0000 117.800 main 344 326 __________O___ -1 20.0000 117.800 4 9 295
1937273N10131 1937 51 WP MM NOT_NAMED 1937-10-03 12:00:00 NR 20.1369 117.342 main 323 301 __________P___ -1 20.1369 117.342 4 9 285
1937273N10131 1937 51 WP MM NOT_NAMED 1937-10-03 15:00:00 NR 20.2223 116.916 main 301 280 __________P___ -1 20.2223 116.916 4 8 282
1937273N10131 1937 51 WP MM NOT_NAMED 1937-10-03 18:00:00 NR 20.2965 116.532 main 277 260 __________P___ -1 20.2965 116.532 4 7 285
1937273N10131 1937 51 WP MM NOT_NAMED 1937-10-03 21:00:00 NR 20.4000 116.200 main 260 235 __________O___ -1 20.4000 116.200 4 7 295
1937273N10131 1937 51 WP MM NOT_NAMED 1937-10-04 00:00:00 NR 20.5684 115.900 main 235 207 __________P___ -1 20.5684 115.900 4 6 306
1937273N10131 1937 51 WP MM NOT_NAMED 1937-10-04 03:00:00 NR 20.7746 115.653 main 207 178 __________P___ -1 20.7746 115.653 4 6 317
1937273N10131 1937 51 WP MM NOT_NAMED 1937-10-04 06:00:00 NR 21.0185 115.453 main 178 140 __________P___ -1 21.0185 115.453 4 6 328
1937273N10131 1937 51 WP MM NOT_NAMED 1937-10-04 09:00:00 NR 21.3000 115.300 main 140 105 __________O___ -1 21.3000 115.300 4 7 337
1937273N10131 1937 51 WP MM NOT_NAMED 1937-10-04 12:00:00 NR 21.6301 115.182 main 105 59 __________P___ -1 21.6301 115.182 4 7 345
1937273N10131 1937 51 WP MM NOT_NAMED 1937-10-04 15:00:00 NR 21.9923 115.105 main 59 30 __________P___ -1 21.9923 115.105 4 7 351
1937273N10131 1937 51 WP MM NOT_NAMED 1937-10-04 18:00:00 NR 22.3583 115.050 main 23 0 __________P___ -1 22.3583 115.050 4 7 352
1937273N10131 1937 51 WP MM NOT_NAMED 1937-10-04 21:00:00 NR 22.7000 115.000 main 0 0 __________O___ -1 22.7000 115.000 4 6 349
1937273N10131 1937 51 WP MM NOT_NAMED 1937-10-05 00:00:00 NR 22.9828 114.917 main 0 0 __________P___ -1 22.9828 114.917 4 6 344
1937273N10131 1937 51 WP MM NOT_NAMED 1937-10-05 03:00:00 NR 23.2375 114.835 main 0 0 __________P___ -1 23.2375 114.835 4 5 344
1937273N10131 1937 51 WP MM NOT_NAMED 1937-10-05 06:00:00 NR 23.4734 114.761 main 0 0 __________P___ -1 23.4734 114.761 4 5 345
1937273N10131 1937 51 WP MM NOT_NAMED 1937-10-05 09:00:00 NR 23.7000 114.700 main 0 0 __________O___ -1 23.7000 114.700 4 5 351
1937273N10131 1937 51 WP MM NOT_NAMED 1937-10-05 12:00:00 NR 23.9402 114.677 main 0 0 __________P___ -1 23.9402 114.677 4 5 354
1937273N10131 1937 51 WP MM NOT_NAMED 1937-10-05 15:00:00 NR 24.1724 114.665 main 0 0 __________P___ -1 24.1724 114.665 4 5 355
1937273N10131 1937 51 WP MM NOT_NAMED 1937-10-05 18:00:00 NR 24.3934 114.645 main 0 0 __________P___ -1 24.3934 114.645 4 4 352
1937273N10131 1937 51 WP MM NOT_NAMED 1937-10-05 21:00:00 NR 24.6000 114.600 main 0 0 __________O___ -1 24.6000 114.600 4 4 343
1937273N10131 1937 51 WP MM NOT_NAMED 1937-10-06 00:00:00 NR 24.7904 114.515 main 0 0 __________P___ -1 24.7904 114.515 4 4 333
1937273N10131 1937 51 WP MM NOT_NAMED 1937-10-06 03:00:00 NR 24.9677 114.396 main 0 0 __________P___ -1 24.9677 114.396 4 4 326
1937273N10131 1937 51 WP MM NOT_NAMED 1937-10-06 06:00:00 NR 25.1361 114.254 main 0 0 __________P___ -1 25.1361 114.254 4 4 321
1937273N10131 1937 51 WP MM NOT_NAMED 1937-10-06 09:00:00 NR 25.3000 114.100 main 0 __________O___ -1 25.3000 114.100 7 4 320

Digital Typhoon Data and Search

About IBTrACS Database

This database is a web-friendly format of International Best Track Archive for Climate Stewardship (IBTrACS), a global best track data archive curated by NOAA dating back to 1842.

Updated: 2021-10-21